createdAt,value
2018-09-13T00:01:00.225Z,0
2018-09-13T00:02:00.218Z,0
2018-09-13T00:03:00.238Z,0
2018-09-13T00:04:00.218Z,0
2018-09-13T00:04:59.938Z,0
2018-09-13T00:06:01.049Z,0
2018-09-13T00:07:00.199Z,0
2018-09-13T00:08:00.204Z,0
2018-09-13T00:09:00.431Z,0
2018-09-13T00:10:00.180Z,0
2018-09-13T00:11:00.429Z,0
2018-09-13T00:12:00.413Z,0
2018-09-13T00:13:00.148Z,0
2018-09-13T00:13:59.907Z,0
2018-09-13T00:15:00.391Z,0
2018-09-13T00:16:00.378Z,0
2018-09-13T00:17:00.377Z,0
2018-09-13T00:18:00.368Z,0
2018-09-13T00:19:00.357Z,0
2018-09-13T00:19:59.840Z,0
2018-09-13T00:21:00.093Z,0
2018-09-13T00:22:00.081Z,0
2018-09-13T00:23:00.339Z,0
2018-09-13T00:24:00.327Z,0
2018-09-13T00:25:00.060Z,0
2018-09-13T00:26:00.313Z,0
2018-09-13T00:27:00.044Z,0
2018-09-13T00:28:00.301Z,0
2018-09-13T00:29:00.040Z,0
2018-09-13T00:30:00.291Z,0
2018-09-13T00:31:00.293Z,0
2018-09-13T00:32:00.275Z,0
2018-09-13T00:33:00.011Z,0
2018-09-13T00:33:59.999Z,0
2018-09-13T00:34:59.983Z,0
2018-09-13T00:35:59.723Z,0
2018-09-13T00:36:59.973Z,0
2018-09-13T00:38:00.220Z,0
2018-09-13T00:39:00.221Z,0
2018-09-13T00:40:00.208Z,0
2018-09-13T00:41:00.213Z,0
2018-09-13T00:41:59.944Z,0
2018-09-13T00:42:59.693Z,0
2018-09-13T00:43:59.674Z,0
2018-09-13T00:44:59.917Z,0
2018-09-13T00:46:00.160Z,0
2018-09-13T00:47:00.157Z,0
2018-09-13T00:47:59.891Z,0
2018-09-13T00:48:59.638Z,0
2018-09-13T00:49:59.875Z,0
2018-09-13T00:50:59.870Z,0
2018-09-13T00:51:59.357Z,0
2018-09-13T00:52:59.863Z,0
2018-09-13T00:54:00.108Z,0
2018-09-13T00:55:00.128Z,0
2018-09-13T00:55:59.838Z,0
2018-09-13T00:57:00.085Z,0
2018-09-13T00:57:59.565Z,0
2018-09-13T00:58:59.739Z,0
2018-09-13T00:59:59.804Z,0
2018-09-13T01:00:59.803Z,0
2018-09-13T01:01:59.539Z,0
2018-09-13T01:02:59.787Z,0
2018-09-13T01:04:00.067Z,0
2018-09-13T01:04:59.518Z,0
2018-09-13T01:05:59.768Z,0
2018-09-13T01:06:59.768Z,0
2018-09-13T01:08:00.011Z,0
2018-09-13T01:08:59.748Z,0
2018-09-13T01:09:59.995Z,0
2018-09-13T01:10:59.729Z,0
2018-09-13T01:11:59.769Z,0
2018-09-13T01:12:59.715Z,0
2018-09-13T01:13:59.704Z,0
2018-09-13T01:14:59.766Z,0
2018-09-13T01:15:59.695Z,0
2018-09-13T01:16:59.430Z,0
2018-09-13T01:17:59.688Z,0
2018-09-13T01:18:59.669Z,0
2018-09-13T01:19:59.917Z,0
2018-09-13T01:20:59.913Z,0
2018-09-13T01:21:59.916Z,0
2018-09-13T01:22:59.906Z,0
2018-09-13T01:23:59.894Z,0
2018-09-13T01:24:59.889Z,0
2018-09-13T01:25:59.623Z,0
2018-09-13T01:26:59.613Z,0
2018-09-13T01:27:59.865Z,0
2018-09-13T01:28:59.345Z,0
2018-09-13T01:29:59.612Z,0
2018-09-13T01:30:59.845Z,0
2018-09-13T01:31:59.581Z,0
2018-09-13T01:32:59.624Z,0
2018-09-13T01:33:59.304Z,0
2018-09-13T01:34:59.559Z,0
2018-09-13T01:35:59.297Z,0
2018-09-13T01:36:59.547Z,0
2018-09-13T01:37:59.540Z,0
2018-09-13T01:38:59.785Z,0
2018-09-13T01:39:59.785Z,0
2018-09-13T01:40:59.525Z,0
2018-09-13T01:41:59.505Z,0
2018-09-13T01:42:59.503Z,0
2018-09-13T01:43:59.753Z,0
2018-09-13T01:44:59.234Z,0
2018-09-13T01:45:59.740Z,0
2018-09-13T01:46:59.485Z,0
2018-09-13T01:47:59.724Z,0
2018-09-13T01:48:59.742Z,0
2018-09-13T01:49:59.713Z,0
2018-09-13T01:50:59.195Z,0
2018-09-13T01:51:59.445Z,0
2018-09-13T01:52:59.695Z,0
2018-09-13T01:53:59.185Z,0
2018-09-13T01:54:59.679Z,0
2018-09-13T01:55:59.410Z,0
2018-09-13T01:56:59.153Z,0
2018-09-13T01:57:59.148Z,0
2018-09-13T01:58:59.386Z,0
2018-09-13T01:59:59.646Z,0
2018-09-13T02:00:59.707Z,0
2018-09-13T02:01:59.365Z,0
2018-09-13T02:02:59.626Z,0
2018-09-13T02:03:59.639Z,0
2018-09-13T02:04:59.101Z,0
2018-09-13T02:05:58.833Z,0
2018-09-13T02:06:59.595Z,0
2018-09-13T02:07:59.587Z,0
2018-09-13T02:08:59.324Z,0
2018-09-13T02:09:59.319Z,0
2018-09-13T02:10:59.562Z,0
2018-09-13T02:11:59.043Z,0
2018-09-13T02:12:59.553Z,0
2018-09-13T02:13:59.546Z,0
2018-09-13T02:14:59.540Z,0
2018-09-13T02:15:59.538Z,0
2018-09-13T02:16:59.530Z,0
2018-09-13T02:17:59.261Z,0
2018-09-13T02:18:59.253Z,0
2018-09-13T02:19:59.269Z,0
2018-09-13T02:20:59.244Z,0
2018-09-13T02:21:59.235Z,0
2018-09-13T02:22:59.485Z,0
2018-09-13T02:23:58.963Z,0
2018-09-13T02:24:58.959Z,0
2018-09-13T02:25:58.945Z,0
2018-09-13T02:26:59.457Z,0
2018-09-13T02:27:59.445Z,0
2018-09-13T02:28:59.188Z,0
2018-09-13T02:29:59.424Z,0
2018-09-13T02:30:59.172Z,0
2018-09-13T02:31:58.912Z,0
2018-09-13T02:32:59.160Z,0
2018-09-13T02:33:59.404Z,0
2018-09-13T02:34:59.395Z,0
2018-09-13T02:35:59.139Z,0
2018-09-13T02:36:58.875Z,0
2018-09-13T02:37:59.371Z,0
2018-09-13T02:38:59.118Z,0
2018-09-13T02:39:59.370Z,0
2018-09-13T02:40:59.365Z,0
2018-09-13T02:41:58.855Z,0
2018-09-13T02:42:59.346Z,0
2018-09-13T02:43:59.333Z,0
2018-09-13T02:44:59.339Z,0
2018-09-13T02:45:59.325Z,0
2018-09-13T02:46:59.065Z,0
2018-09-13T02:47:59.314Z,0
2018-09-13T02:48:58.858Z,0
2018-09-13T02:49:59.300Z,0
2018-09-13T02:50:58.778Z,0
2018-09-13T02:51:59.278Z,0
2018-09-13T02:52:59.291Z,0
2018-09-13T02:53:59.267Z,0
2018-09-13T02:54:59.260Z,0
2018-09-13T02:55:59.255Z,0
2018-09-13T02:56:58.728Z,0
2018-09-13T02:57:59.244Z,0
2018-09-13T02:58:59.229Z,0
2018-09-13T02:59:59.220Z,0
2018-09-13T03:00:58.719Z,0
2018-09-13T03:01:58.695Z,0
2018-09-13T03:02:59.212Z,0
2018-09-13T03:03:58.936Z,0
2018-09-13T03:04:58.925Z,0
2018-09-13T03:05:58.920Z,0
2018-09-13T03:06:58.914Z,0
2018-09-13T03:07:59.163Z,0
2018-09-13T03:08:59.177Z,0
2018-09-13T03:09:59.148Z,0
2018-09-13T03:10:58.889Z,0
2018-09-13T03:11:58.885Z,0
2018-09-13T03:12:59.142Z,0
2018-09-13T03:13:59.133Z,0
2018-09-13T03:14:59.124Z,0
2018-09-13T03:15:59.113Z,0
2018-09-13T03:16:59.109Z,0
2018-09-13T03:17:58.840Z,0
2018-09-13T03:18:58.864Z,0
2018-09-13T03:19:58.830Z,0
2018-09-13T03:20:58.810Z,0
2018-09-13T03:21:59.062Z,0
2018-09-13T03:22:59.054Z,0
2018-09-13T03:23:58.789Z,0
2018-09-13T03:24:59.037Z,0
2018-09-13T03:25:59.033Z,0
2018-09-13T03:26:59.027Z,0
2018-09-13T03:27:58.763Z,0
2018-09-13T03:28:59.026Z,0
2018-09-13T03:29:59.037Z,0
2018-09-13T03:30:59.034Z,0
2018-09-13T03:31:58.759Z,0
2018-09-13T03:32:58.734Z,0
2018-09-13T03:33:58.969Z,0
2018-09-13T03:34:58.972Z,0
2018-09-13T03:35:58.446Z,0
2018-09-13T03:36:58.958Z,0
2018-09-13T03:37:58.952Z,0
2018-09-13T03:38:58.681Z,0
2018-09-13T03:39:58.928Z,0
2018-09-13T03:40:58.932Z,0
2018-09-13T03:41:59.199Z,0
2018-09-13T03:42:58.661Z,0
2018-09-13T03:43:58.667Z,0
2018-09-13T03:44:58.905Z,0
2018-09-13T03:45:58.897Z,0
2018-09-13T03:46:58.883Z,0
2018-09-13T03:47:58.884Z,0
2018-09-13T03:48:58.883Z,0
2018-09-13T03:49:58.619Z,0
2018-09-13T03:50:58.864Z,0
2018-09-13T03:51:58.847Z,0
2018-09-13T03:52:58.842Z,0
2018-09-13T03:53:58.837Z,0
2018-09-13T03:54:58.598Z,0
2018-09-13T03:55:58.817Z,0
2018-09-13T03:56:58.811Z,0
2018-09-13T03:57:58.848Z,0
2018-09-13T03:58:58.555Z,0
2018-09-13T03:59:58.786Z,0
2018-09-13T04:00:58.527Z,0
2018-09-13T04:01:58.521Z,0
2018-09-13T04:02:58.770Z,0
2018-09-13T04:03:58.253Z,0
2018-09-13T04:04:58.503Z,0
2018-09-13T04:05:58.491Z,0
2018-09-13T04:06:58.751Z,0
2018-09-13T04:07:58.733Z,0
2018-09-13T04:08:58.729Z,0
2018-09-13T04:09:58.728Z,0
2018-09-13T04:10:58.729Z,0
2018-09-13T04:11:58.193Z,0
2018-09-13T04:12:58.698Z,0
2018-09-13T04:13:58.714Z,0
2018-09-13T04:14:58.434Z,0
2018-09-13T04:15:58.675Z,0
2018-09-13T04:16:58.681Z,0
2018-09-13T04:17:58.440Z,0
2018-09-13T04:18:59.308Z,0
2018-09-13T04:19:58.658Z,0
2018-09-13T04:20:58.396Z,0
2018-09-13T04:21:58.385Z,0
2018-09-13T04:22:58.375Z,0
2018-09-13T04:23:58.110Z,0
2018-09-13T04:24:58.358Z,0
2018-09-13T04:25:58.355Z,0
2018-09-13T04:26:58.347Z,0
2018-09-13T04:27:58.610Z,0
2018-09-13T04:28:58.591Z,0
2018-09-13T04:29:58.075Z,0
2018-09-13T04:30:58.655Z,0
2018-09-13T04:31:58.573Z,0
2018-09-13T04:32:58.369Z,0
2018-09-13T04:33:58.549Z,0
2018-09-13T04:34:58.547Z,0
2018-09-13T04:35:58.538Z,0
2018-09-13T04:36:58.544Z,0
2018-09-13T04:37:58.528Z,0
2018-09-13T04:38:58.526Z,0
2018-09-13T04:39:58.254Z,0
2018-09-13T04:40:58.502Z,0
2018-09-13T04:41:58.499Z,0
2018-09-13T04:42:58.489Z,0
2018-09-13T04:43:58.475Z,0
2018-09-13T04:44:58.479Z,0
2018-09-13T04:45:57.954Z,0
2018-09-13T04:46:58.469Z,0
2018-09-13T04:47:58.461Z,0
2018-09-13T04:48:58.466Z,5
2018-09-13T04:49:57.919Z,5
2018-09-13T04:50:58.471Z,5
2018-09-13T04:51:58.170Z,5
2018-09-13T04:52:58.161Z,5
2018-09-13T04:53:58.153Z,5
2018-09-13T04:54:58.153Z,5
2018-09-13T04:55:58.134Z,5
2018-09-13T04:56:58.128Z,5
2018-09-13T04:57:58.379Z,5
2018-09-13T04:58:58.119Z,5
2018-09-13T04:59:58.107Z,5
2018-09-13T05:00:58.101Z,5
2018-09-13T05:01:58.365Z,10
2018-09-13T05:02:58.090Z,10
2018-09-13T05:03:58.103Z,10
2018-09-13T05:04:58.088Z,10
2018-09-13T05:05:58.340Z,10
2018-09-13T05:06:58.059Z,15
2018-09-13T05:07:58.058Z,15
2018-09-13T05:08:57.786Z,15
2018-09-13T05:09:58.299Z,15
2018-09-13T05:10:58.282Z,15
2018-09-13T05:11:57.815Z,20
2018-09-13T05:12:58.783Z,20
2018-09-13T05:13:58.264Z,20
2018-09-13T05:14:58.264Z,25
2018-09-13T05:15:58.003Z,25
2018-09-13T05:16:58.257Z,30
2018-09-13T05:17:57.978Z,35
2018-09-13T05:18:58.231Z,35
2018-09-13T05:19:57.711Z,40
2018-09-13T05:20:58.230Z,40
2018-09-13T05:21:57.963Z,45
2018-09-13T05:22:57.951Z,50
2018-09-13T05:23:57.945Z,50
2018-09-13T05:24:58.192Z,50
2018-09-13T05:25:57.935Z,55
2018-09-13T05:26:58.181Z,55
2018-09-13T05:27:57.912Z,60
2018-09-13T05:28:57.917Z,55
2018-09-13T05:29:57.899Z,55
2018-09-13T05:30:57.899Z,55
2018-09-13T05:31:58.059Z,60
2018-09-13T05:32:57.892Z,65
2018-09-13T05:33:58.130Z,65
2018-09-13T05:34:58.134Z,70
2018-09-13T05:35:57.877Z,65
2018-09-13T05:36:57.597Z,60
2018-09-13T05:37:57.853Z,65
2018-09-13T05:38:58.245Z,60
2018-09-13T05:39:58.102Z,60
2018-09-13T05:40:57.826Z,60
2018-09-13T05:41:57.573Z,60
2018-09-13T05:42:58.068Z,65
2018-09-13T05:43:57.560Z,65
2018-09-13T05:44:58.114Z,70
2018-09-13T05:45:57.804Z,70
2018-09-13T05:46:58.055Z,70
2018-09-13T05:47:58.040Z,70
2018-09-13T05:48:57.258Z,65
2018-09-13T05:49:58.025Z,65
2018-09-13T05:50:57.502Z,60
2018-09-13T05:51:58.029Z,60
2018-09-13T05:52:57.761Z,55
2018-09-13T05:53:57.993Z,55
2018-09-13T05:54:57.735Z,55
2018-09-13T05:55:57.993Z,55
2018-09-13T05:56:57.724Z,55
2018-09-13T05:57:57.461Z,55
2018-09-13T05:58:57.967Z,60
2018-09-13T05:59:57.187Z,60
2018-09-13T06:00:57.697Z,60
2018-09-13T06:01:57.685Z,60
2018-09-13T06:02:57.445Z,60
2018-09-13T06:03:57.426Z,60
2018-09-13T06:04:57.416Z,60
2018-09-13T06:05:57.917Z,65
2018-09-13T06:06:56.885Z,65
2018-09-13T06:07:58.268Z,70
2018-09-13T06:08:57.655Z,80
2018-09-13T06:09:57.649Z,85
2018-09-13T06:10:57.885Z,85
2018-09-13T06:11:57.632Z,85
2018-09-13T06:12:57.879Z,85
2018-09-13T06:13:57.351Z,85
2018-09-13T06:14:57.606Z,85
2018-09-13T06:15:57.861Z,85
2018-09-13T06:16:57.597Z,90
2018-09-13T06:17:57.344Z,95
2018-09-13T06:18:57.893Z,100
2018-09-13T06:19:58.288Z,110
2018-09-13T06:20:57.311Z,110
2018-09-13T06:21:57.831Z,115
2018-09-13T06:22:57.548Z,110
2018-09-13T06:23:57.802Z,100
2018-09-13T06:24:57.809Z,90
2018-09-13T06:25:57.787Z,85
2018-09-13T06:26:57.804Z,90
2018-09-13T06:27:57.523Z,90
2018-09-13T06:28:57.521Z,95
2018-09-13T06:29:57.513Z,100
2018-09-13T06:30:57.757Z,110
2018-09-13T06:31:57.503Z,120
2018-09-13T06:32:57.486Z,120
2018-09-13T06:33:57.743Z,120
2018-09-13T06:34:57.217Z,110
2018-09-13T06:35:57.724Z,100
2018-09-13T06:36:56.698Z,90
2018-09-13T06:37:57.725Z,90
2018-09-13T06:38:57.712Z,90
2018-09-13T06:39:57.465Z,85
2018-09-13T06:40:57.452Z,85
2018-09-13T06:41:57.442Z,80
2018-09-13T06:42:57.739Z,85
2018-09-13T06:43:57.701Z,105
2018-09-13T06:44:57.423Z,125
2018-09-13T06:45:57.679Z,135
2018-09-13T06:46:57.405Z,135
2018-09-13T06:47:57.673Z,130
2018-09-13T06:48:57.402Z,130
2018-09-13T06:49:57.385Z,145
2018-09-13T06:50:57.380Z,165
2018-09-13T06:51:56.862Z,165
2018-09-13T06:52:57.632Z,140
2018-09-13T06:53:57.376Z,120
2018-09-13T06:54:57.358Z,110
2018-09-13T06:55:57.403Z,115
2018-09-13T06:56:57.607Z,130
2018-09-13T06:57:57.599Z,145
2018-09-13T06:58:57.333Z,155
2018-09-13T06:59:57.648Z,150
2018-09-13T07:00:57.327Z,155
2018-09-13T07:01:57.573Z,145
2018-09-13T07:02:57.313Z,130
2018-09-13T07:03:57.583Z,155
2018-09-13T07:04:57.562Z,170
2018-09-13T07:05:57.304Z,170
2018-09-13T07:06:57.550Z,180
2018-09-13T07:07:57.546Z,200
2018-09-13T07:08:57.348Z,200
2018-09-13T07:09:57.266Z,170
2018-09-13T07:10:57.535Z,160
2018-09-13T07:11:57.262Z,150
2018-09-13T07:12:57.259Z,145
2018-09-13T07:13:57.257Z,160
2018-09-13T07:14:57.245Z,165
2018-09-13T07:15:56.985Z,170
2018-09-13T07:16:57.493Z,170
2018-09-13T07:17:57.485Z,165
2018-09-13T07:18:57.486Z,160
2018-09-13T07:19:57.214Z,165
2018-09-13T07:20:58.420Z,165
2018-09-13T07:21:57.461Z,170
2018-09-13T07:22:57.204Z,165
2018-09-13T07:23:57.197Z,150
2018-09-13T07:24:57.443Z,145
2018-09-13T07:25:56.688Z,135
2018-09-13T07:26:57.447Z,135
2018-09-13T07:27:57.432Z,135
2018-09-13T07:28:57.435Z,135
2018-09-13T07:29:56.904Z,140
2018-09-13T07:30:57.660Z,145
2018-09-13T07:31:56.906Z,150
2018-09-13T07:32:57.150Z,155
2018-09-13T07:33:57.138Z,160
2018-09-13T07:34:57.451Z,165
2018-09-13T07:35:57.394Z,170
2018-09-13T07:36:57.224Z,180
2018-09-13T07:37:57.121Z,185
2018-09-13T07:38:57.367Z,185
2018-09-13T07:39:57.378Z,180
2018-09-13T07:40:57.116Z,185
2018-09-13T07:41:57.093Z,190
2018-09-13T07:42:57.882Z,195
2018-09-13T07:43:57.341Z,225
2018-09-13T07:44:57.094Z,205
2018-09-13T07:45:57.336Z,195
2018-09-13T07:46:56.814Z,195
2018-09-13T07:47:57.074Z,205
2018-09-13T07:48:57.164Z,215
2018-09-13T07:49:58.259Z,225
2018-09-13T07:50:56.802Z,220
2018-09-13T07:51:57.317Z,230
2018-09-13T07:52:57.041Z,240
2018-09-13T07:53:57.304Z,245
2018-09-13T07:54:57.278Z,250
2018-09-13T07:55:57.832Z,260
2018-09-13T07:56:57.029Z,245
2018-09-13T07:57:57.015Z,235
2018-09-13T07:58:57.268Z,230
2018-09-13T07:59:57.014Z,240
2018-09-13T08:00:57.006Z,260
2018-09-13T08:01:57.001Z,285
2018-09-13T08:02:57.247Z,315
2018-09-13T08:03:57.249Z,305
2018-09-13T08:04:56.792Z,330
2018-09-13T08:05:56.980Z,355
2018-09-13T08:06:56.978Z,365
2018-09-13T08:07:56.965Z,335
2018-09-13T08:08:57.237Z,300
2018-09-13T08:09:56.968Z,270
2018-09-13T08:10:57.216Z,250
2018-09-13T08:11:57.300Z,245
2018-09-13T08:12:56.692Z,255
2018-09-13T08:13:56.955Z,275
2018-09-13T08:14:57.203Z,300
2018-09-13T08:15:57.754Z,320
2018-09-13T08:16:56.931Z,335
2018-09-13T08:17:56.677Z,335
2018-09-13T08:18:56.935Z,340
2018-09-13T08:19:56.668Z,335
2018-09-13T08:20:56.920Z,315
2018-09-13T08:21:56.941Z,280
2018-09-13T08:22:56.908Z,250
2018-09-13T08:23:56.914Z,205
2018-09-13T08:24:56.904Z,195
2018-09-13T08:25:56.899Z,200
2018-09-13T08:26:57.063Z,240
2018-09-13T08:27:56.623Z,275
2018-09-13T08:28:56.886Z,285
2018-09-13T08:29:56.878Z,285
2018-09-13T08:30:56.885Z,280
2018-09-13T08:31:57.137Z,280
2018-09-13T08:32:57.129Z,285
2018-09-13T08:33:57.126Z,285
2018-09-13T08:34:57.453Z,280
2018-09-13T08:35:56.598Z,270
2018-09-13T08:36:57.068Z,255
2018-09-13T08:37:57.113Z,240
2018-09-13T08:38:57.121Z,230
2018-09-13T08:39:57.259Z,225
2018-09-13T08:40:56.842Z,220
2018-09-13T08:41:56.845Z,220
2018-09-13T08:42:56.899Z,220
2018-09-13T08:43:56.825Z,225
2018-09-13T08:44:56.828Z,230
2018-09-13T08:45:56.309Z,230
2018-09-13T08:46:56.815Z,235
2018-09-13T08:47:56.815Z,245
2018-09-13T08:48:56.555Z,255
2018-09-13T08:49:57.060Z,265
2018-09-13T08:50:57.059Z,275
2018-09-13T08:51:56.636Z,280
2018-09-13T08:52:57.040Z,285
2018-09-13T08:53:56.782Z,280
2018-09-13T08:54:56.527Z,275
2018-09-13T08:55:57.039Z,265
2018-09-13T08:56:56.784Z,255
2018-09-13T08:57:56.789Z,245
2018-09-13T08:58:56.790Z,250
2018-09-13T08:59:56.766Z,270
2018-09-13T09:00:56.639Z,285
2018-09-13T09:01:56.761Z,285
2018-09-13T09:02:56.502Z,285
2018-09-13T09:03:56.762Z,280
2018-09-13T09:04:57.013Z,295
2018-09-13T09:05:56.772Z,310
2018-09-13T09:06:55.974Z,320
2018-09-13T09:07:56.761Z,325
2018-09-13T09:08:56.989Z,325
2018-09-13T09:09:56.727Z,330
2018-09-13T09:10:56.728Z,330
2018-09-13T09:11:57.087Z,335
2018-09-13T09:12:56.724Z,340
2018-09-13T09:13:56.974Z,350
2018-09-13T09:14:56.716Z,360
2018-09-13T09:15:56.968Z,370
2018-09-13T09:16:56.958Z,390
2018-09-13T09:17:56.710Z,395
2018-09-13T09:18:56.969Z,410
2018-09-13T09:19:56.698Z,435
2018-09-13T09:20:56.696Z,485
2018-09-13T09:21:56.698Z,540
2018-09-13T09:22:56.701Z,505
2018-09-13T09:23:56.953Z,465
2018-09-13T09:24:56.967Z,470
2018-09-13T09:25:56.938Z,500
2018-09-13T09:26:56.960Z,535
2018-09-13T09:27:56.938Z,525
2018-09-13T09:28:57.149Z,485
2018-09-13T09:29:56.995Z,460
2018-09-13T09:30:56.673Z,410
2018-09-13T09:31:56.934Z,385
2018-09-13T09:32:56.664Z,365
2018-09-13T09:33:56.929Z,335
2018-09-13T09:34:57.489Z,315
2018-09-13T09:35:56.667Z,310
2018-09-13T09:36:56.137Z,300
2018-09-13T09:37:56.655Z,300
2018-09-13T09:38:56.911Z,295
2018-09-13T09:39:57.214Z,285
2018-09-13T09:40:56.436Z,265
2018-09-13T09:41:56.650Z,260
2018-09-13T09:42:56.391Z,250
2018-09-13T09:43:56.911Z,240
2018-09-13T09:44:57.064Z,240
2018-09-13T09:45:56.381Z,250
2018-09-13T09:46:56.370Z,255
2018-09-13T09:47:56.993Z,265
2018-09-13T09:48:56.888Z,280
2018-09-13T09:49:56.884Z,270
2018-09-13T09:50:56.888Z,265
2018-09-13T09:51:57.064Z,270
2018-09-13T09:52:56.615Z,260
2018-09-13T09:53:56.874Z,265
2018-09-13T09:54:56.670Z,265
2018-09-13T09:55:56.618Z,270
2018-09-13T09:56:56.870Z,270
2018-09-13T09:57:57.123Z,275
2018-09-13T09:58:56.618Z,280
2018-09-13T09:59:56.861Z,285
2018-09-13T10:00:56.856Z,285
2018-09-13T10:01:56.607Z,285
2018-09-13T10:02:56.618Z,280
2018-09-13T10:03:56.597Z,275
2018-09-13T10:04:56.857Z,280
2018-09-13T10:05:56.334Z,300
2018-09-13T10:06:56.600Z,310
2018-09-13T10:07:56.649Z,325
2018-09-13T10:08:56.971Z,345
2018-09-13T10:09:56.707Z,350
2018-09-13T10:10:56.845Z,335
2018-09-13T10:11:55.823Z,310
2018-09-13T10:12:56.577Z,275
2018-09-13T10:13:56.319Z,240
2018-09-13T10:14:56.687Z,215
2018-09-13T10:15:56.320Z,190
2018-09-13T10:16:56.308Z,180
2018-09-13T10:17:56.045Z,180
2018-09-13T10:18:56.309Z,185
2018-09-13T10:19:56.809Z,185
2018-09-13T10:20:56.555Z,180
2018-09-13T10:21:56.809Z,190
2018-09-13T10:22:57.025Z,215
2018-09-13T10:23:57.034Z,240
2018-09-13T10:24:56.853Z,250
2018-09-13T10:25:56.543Z,270
2018-09-13T10:26:56.743Z,275
2018-09-13T10:27:56.798Z,255
2018-09-13T10:28:56.789Z,225
2018-09-13T10:29:56.792Z,205
2018-09-13T10:30:56.525Z,200
2018-09-13T10:31:56.526Z,210
2018-09-13T10:32:56.785Z,225
2018-09-13T10:33:56.520Z,250
2018-09-13T10:34:56.773Z,270
2018-09-13T10:35:56.777Z,270
2018-09-13T10:36:56.517Z,275
2018-09-13T10:37:56.506Z,280
2018-09-13T10:38:56.502Z,295
2018-09-13T10:39:56.765Z,305
2018-09-13T10:40:56.953Z,315
2018-09-13T10:41:56.501Z,320
2018-09-13T10:42:56.498Z,325
2018-09-13T10:43:56.509Z,330
2018-09-13T10:44:56.238Z,340
2018-09-13T10:45:56.487Z,345
2018-09-13T10:46:56.225Z,350
2018-09-13T10:48:04.081Z,355
2018-09-13T10:48:56.491Z,360
2018-09-13T10:49:55.953Z,345
2018-09-13T10:50:56.474Z,320
2018-09-13T10:51:56.472Z,295
2018-09-13T10:52:56.475Z,265
2018-09-13T10:53:56.474Z,245
2018-09-13T10:54:56.718Z,230
2018-09-13T10:55:56.882Z,225
2018-09-13T10:56:56.708Z,230
2018-09-13T10:57:56.197Z,245
2018-09-13T10:58:56.455Z,260
2018-09-13T10:59:56.197Z,265
2018-09-13T11:00:56.452Z,265
2018-09-13T11:01:56.185Z,270
2018-09-13T11:02:56.447Z,280
2018-09-13T11:03:56.602Z,290
2018-09-13T11:04:56.443Z,295
2018-09-13T11:05:56.800Z,275
2018-09-13T11:06:56.690Z,260
2018-09-13T11:07:56.690Z,265
2018-09-13T11:08:56.676Z,260
2018-09-13T11:09:56.683Z,265
2018-09-13T11:10:57.886Z,295
2018-09-13T11:11:56.674Z,340
2018-09-13T11:12:56.165Z,395
2018-09-13T11:13:56.673Z,440
2018-09-13T11:14:56.669Z,470
2018-09-13T11:15:55.636Z,490
2018-09-13T11:16:56.152Z,500
2018-09-13T11:17:56.413Z,510
2018-09-13T11:18:56.660Z,520
2018-09-13T11:19:56.403Z,500
2018-09-13T11:20:56.399Z,425
2018-09-13T11:21:56.501Z,370
2018-09-13T11:22:56.391Z,345
2018-09-13T11:23:56.138Z,350
2018-09-13T11:24:56.648Z,380
2018-09-13T11:25:56.381Z,395
2018-09-13T11:26:56.651Z,390
2018-09-13T11:27:56.649Z,360
2018-09-13T11:28:56.122Z,340
2018-09-13T11:29:56.382Z,335
2018-09-13T11:30:56.641Z,350
2018-09-13T11:31:56.371Z,345
2018-09-13T11:32:56.117Z,325
2018-09-13T11:33:56.378Z,300
2018-09-13T11:34:56.625Z,285
2018-09-13T11:35:56.371Z,290
2018-09-13T11:36:56.622Z,315
2018-09-13T11:37:56.106Z,335
2018-09-13T11:38:56.620Z,350
2018-09-13T11:39:57.270Z,370
2018-09-13T11:40:57.925Z,390
2018-09-13T11:41:56.103Z,400
2018-09-13T11:42:56.370Z,395
2018-09-13T11:43:56.614Z,390
2018-09-13T11:44:56.357Z,385
2018-09-13T11:45:56.613Z,380
2018-09-13T11:46:56.409Z,385
2018-09-13T11:47:56.349Z,385
2018-09-13T11:48:56.352Z,380
2018-09-13T11:49:56.344Z,375
2018-09-13T11:50:56.609Z,370
2018-09-13T11:51:56.339Z,360
2018-09-13T11:52:56.337Z,365
2018-09-13T11:53:56.683Z,395
2018-09-13T11:54:56.342Z,440
2018-09-13T11:55:56.350Z,495
2018-09-13T11:56:56.341Z,515
2018-09-13T11:57:56.331Z,530
2018-09-13T11:58:56.336Z,525
2018-09-13T11:59:56.632Z,515
2018-09-13T12:00:56.335Z,495
2018-09-13T12:01:56.576Z,470
2018-09-13T12:02:56.325Z,425
2018-09-13T12:03:56.325Z,395
2018-09-13T12:04:56.581Z,365
2018-09-13T12:05:56.584Z,335
2018-09-13T12:06:56.589Z,335
2018-09-13T12:07:56.572Z,335
2018-09-13T12:08:56.573Z,340
2018-09-13T12:09:56.329Z,345
2018-09-13T12:10:56.573Z,355
2018-09-13T12:11:56.319Z,365
2018-09-13T12:12:56.575Z,385
2018-09-13T12:13:55.806Z,410
2018-09-13T12:14:56.569Z,385
2018-09-13T12:15:56.574Z,430
2018-09-13T12:16:56.310Z,365
2018-09-13T12:17:56.648Z,335
2018-09-13T12:18:56.576Z,340
2018-09-13T12:19:56.307Z,325
2018-09-13T12:20:55.787Z,320
2018-09-13T12:21:56.557Z,325
2018-09-13T12:22:56.304Z,330
2018-09-13T12:23:56.553Z,345
2018-09-13T12:24:55.528Z,365
2018-09-13T12:25:56.553Z,330
2018-09-13T12:26:56.283Z,330
2018-09-13T12:27:56.290Z,290
2018-09-13T12:28:56.029Z,260
2018-09-13T12:29:56.285Z,235
2018-09-13T12:30:56.282Z,220
2018-09-13T12:31:56.286Z,210
2018-09-13T12:32:56.024Z,210
2018-09-13T12:33:56.491Z,220
2018-09-13T12:34:56.540Z,230
2018-09-13T12:35:56.274Z,225
2018-09-13T12:36:56.273Z,235
2018-09-13T12:37:55.754Z,225
2018-09-13T12:38:56.025Z,210
2018-09-13T12:39:55.749Z,210
2018-09-13T12:40:55.751Z,220
2018-09-13T12:41:56.014Z,225
2018-09-13T12:42:56.521Z,230
2018-09-13T12:43:56.258Z,235
2018-09-13T12:44:55.745Z,235
2018-09-13T12:45:56.528Z,235
2018-09-13T12:46:56.527Z,255
2018-09-13T12:47:55.735Z,280
2018-09-13T12:48:56.255Z,280
2018-09-13T12:49:56.691Z,285
2018-09-13T12:50:56.513Z,360
2018-09-13T12:51:56.280Z,460
2018-09-13T12:52:56.503Z,520
2018-09-13T12:53:56.235Z,485
2018-09-13T12:54:56.486Z,410
2018-09-13T12:55:56.496Z,435
2018-09-13T12:56:57.133Z,465
2018-09-13T12:57:56.232Z,435
2018-09-13T12:58:55.969Z,390
2018-09-13T12:59:56.220Z,355
2018-09-13T13:00:56.484Z,340
2018-09-13T13:01:56.487Z,320
2018-09-13T13:02:56.486Z,320
2018-09-13T13:03:56.221Z,320
2018-09-13T13:04:56.467Z,315
2018-09-13T13:05:56.476Z,345
2018-09-13T13:06:56.921Z,360
2018-09-13T13:07:56.470Z,345
2018-09-13T13:08:56.634Z,340
2018-09-13T13:09:56.460Z,325
2018-09-13T13:10:56.466Z,310
2018-09-13T13:11:56.202Z,300
2018-09-13T13:12:56.200Z,270
2018-09-13T13:13:56.458Z,235
2018-09-13T13:14:56.496Z,225
2018-09-13T13:15:56.443Z,220
2018-09-13T13:16:56.779Z,215
2018-09-13T13:17:56.449Z,200
2018-09-13T13:18:56.190Z,190
2018-09-13T13:19:56.185Z,185
2018-09-13T13:20:56.183Z,195
2018-09-13T13:21:56.457Z,205
2018-09-13T13:22:56.436Z,235
2018-09-13T13:23:56.432Z,260
2018-09-13T13:24:56.180Z,280
2018-09-13T13:25:56.432Z,285
2018-09-13T13:26:55.915Z,290
2018-09-13T13:27:56.463Z,270
2018-09-13T13:28:56.481Z,240
2018-09-13T13:29:56.434Z,210
2018-09-13T13:30:56.169Z,210
2018-09-13T13:31:56.157Z,185
2018-09-13T13:32:56.427Z,175
2018-09-13T13:33:55.896Z,170
2018-09-13T13:34:56.409Z,165
2018-09-13T13:35:55.637Z,150
2018-09-13T13:36:55.893Z,155
2018-09-13T13:37:56.409Z,170
2018-09-13T13:38:56.438Z,170
2018-09-13T13:39:56.446Z,160
2018-09-13T13:40:56.393Z,140
2018-09-13T13:41:56.145Z,125
2018-09-13T13:42:56.397Z,120
2018-09-13T13:43:56.604Z,120
2018-09-13T13:44:55.872Z,115
2018-09-13T13:45:56.393Z,120
2018-09-13T13:46:56.387Z,125
2018-09-13T13:47:56.123Z,135
2018-09-13T13:48:56.113Z,135
2018-09-13T13:49:56.365Z,140
2018-09-13T13:50:55.862Z,140
2018-09-13T13:51:56.388Z,140
2018-09-13T13:52:56.115Z,140
2018-09-13T13:53:56.102Z,140
2018-09-13T13:54:56.108Z,140
2018-09-13T13:55:56.349Z,130
2018-09-13T13:56:56.350Z,125
2018-09-13T13:57:56.089Z,120
2018-09-13T13:58:56.352Z,120
2018-09-13T13:59:56.746Z,125
2018-09-13T14:00:55.574Z,130
2018-09-13T14:01:55.819Z,135
2018-09-13T14:02:56.074Z,135
2018-09-13T14:03:56.074Z,135
2018-09-13T14:04:56.074Z,145
2018-09-13T14:05:55.809Z,150
2018-09-13T14:06:56.061Z,135
2018-09-13T14:07:56.313Z,120
2018-09-13T14:08:56.309Z,115
2018-09-13T14:09:57.070Z,125